KBGM METAR

Date/Time (Local) Flight Rules Wind Clouds Visibility Temperature Dewpoint Altimeter Remarks
10/01 8:53 pm VFR 30° @ 8 kts OVC 7000 10.0sm 13.9°C / 55.4°F 5.0°C / 41°F 30.059055
10/01 7:53 pm VFR 40° @ 7 kts OVC 7000 10.0sm 13.9°C / 55.4°F 2.8°C / 35.6°F 30.050198
10/01 6:53 pm VFR 40° @ 8 kts OVC 7500 10.0sm 15.0°C / 59°F 2.8°C / 35.6°F 30.050198
10/01 5:53 pm VFR 40° @ 9 kts OVC 7000 10.0sm 15.6°C / 59°F 5.0°C / 41°F 30.050198
10/01 4:53 pm VFR 50° @ 7 kts OVC 7000 10.0sm 17.2°C / 62.6°F 7.8°C / 44.6°F 30.050198
10/01 3:53 pm SPECI VFR 60° @ 5 kts OVC 7000 10.0sm 16.7°C / 60.8°F 6.7°C / 42.8°F 30.041338
10/01 2:53 pm VFR 70° @ 6 kts OVC 5500 10.0sm 16.7°C / 60.8°F 4.4°C / 39.2°F 30.050198
10/01 1:53 pm VFR 60° @ 7 kts BKN 8000 10.0sm 16.7°C / 60.8°F 5.0°C / 41°F 30.059055
Show/Hide History...

BGM AFD

.AVIATION /00Z SUNDAY THROUGH THURSDAY/...
Ceilings lower to near MVFR at AVP this evening and likely will
bounce around MVFR most of the forecast period. There will also
be a few showers around AVP the rest of this evening.
Elsewhere, expect varying amounts of mid and high clouds and
VFR.

Northeast winds at around 5 to 10kts remain persistent into the
Sunday all terminals, with gusts around 15 to 20kts possible
later tonight through Sunday at KAVP.

Outlook...

Sunday night through Thursday...Mainly VFR.

Nearby AWOS/ASOS

KBGM: Binghamton 607-729-8335 128.15
KCZG: Tri-Cities 607-785-2926 119.075
N23: Sidney 607-561-2333 118.275
KOIC: Norwich 607-336-8583 119.025
N03: Cortland 607-753-9784 132.225
KAVP: Scranton 570-655-0748 111.6 (VOR)

KBGM TAF

Date/Time (Local) Flight Rules Wind Clouds Visibility (sm)  
10/01 8:00 pm thru 10/02 8:00 pm VFR 40° @ 8 kts OVC 8000 >= 6

KELM METAR

Date/Time (Local) Flight Rules Wind Clouds Visibility Temperature Dewpoint Altimeter Remarks
10/01 8:53 pm VFR 30° @ 4 kts OVC 8000 10.0sm 14.4°C / 57.2°F 8.9°C / 46.4°F 30.070866
10/01 7:53 pm VFR 20° @ 7 kts OVC 8000 10.0sm 15.0°C / 59°F 9.4°C / 48.2°F 30.059055
10/01 6:53 pm VFR 30° @ 10 kts BKN 9000 BKN 11000 10.0sm 16.1°C / 60.8°F 7.2°C / 44.6°F 30.050198
10/01 5:53 pm VFR 40° @ 8 kts OVC 9000 10.0sm 16.7°C / 60.8°F 7.2°C / 44.6°F 30.041338
10/01 4:53 pm VFR 30° @ 10 kts OVC 9000 10.0sm 17.2°C / 62.6°F 7.8°C / 44.6°F 30.041338
10/01 3:53 pm SPECI VFR 20° @ 11 kts OVC 9500 10.0sm 17.8°C / 62.6°F 7.8°C / 44.6°F 30.041338
10/01 2:53 pm VFR 20° @ 13 kts OVC 9000 10.0sm 18.9°C / 64.4°F 8.9°C / 46.4°F 30.050198
10/01 1:53 pm VFR 20° @ 12 kts OVC 8500 10.0sm 17.8°C / 62.6°F 8.3°C / 46.4°F 30.059055
Show/Hide History...

KITH METAR

Date/Time (Local) Flight Rules Wind Clouds Visibility Temperature Dewpoint Altimeter Remarks
10/01 8:56 pm VFR 340° @ 5 kts FEW 7000 OVC 10000 10.0sm 12.8°C / 53.6°F 9.4°C / 48.2°F 30.100393 Light Rain
10/01 7:56 pm VFR 340° @ 4 kts OVC 10000 10.0sm 13.9°C / 55.4°F 8.9°C / 46.4°F 30.088583
10/01 6:56 pm VFR 350° @ 4 kts OVC 10000 10.0sm 15.0°C / 59°F 7.8°C / 44.6°F 30.079725
10/01 5:56 pm VFR 10° @ 6 kts OVC 10000 10.0sm 16.1°C / 60.8°F 6.7°C / 42.8°F 30.079725
10/01 4:56 pm VFR 10° @ 7 - 14 kts OVC 10000 10.0sm 17.2°C / 62.6°F 6.7°C / 42.8°F 30.070866
10/01 3:56 pm VFR 360° @ 11 - 15 kts CLR 10.0sm 18.3°C / 64.4°F 7.8°C / 44.6°F 30.070866
10/01 2:56 pm VFR 340° @ 9 kts CLR 10.0sm 18.9°C / 64.4°F 8.3°C / 46.4°F 30.079725
10/01 1:56 pm VFR Variable @ 6 kts CLR 10.0sm 18.9°C / 64.4°F 5.6°C / 41°F 30.088583
Show/Hide History...

KAVP METAR

Date/Time (Local) Flight Rules Wind Clouds Visibility Temperature Dewpoint Altimeter Remarks
10/01 8:54 pm VFR 50° @ 3 kts OVC 3400 10.0sm 15.6°C / 59°F 9.4°C / 48.2°F 30.02067
10/01 7:54 pm VFR 50° @ 5 kts OVC 3100 10.0sm 15.6°C / 59°F 8.9°C / 46.4°F 30.008858
10/01 6:54 pm VFR 50° @ 10 kts OVC 3600 10.0sm 16.7°C / 60.8°F 8.3°C / 46.4°F 30.008858
10/01 5:54 pm VFR 60° @ 7 kts OVC 3400 10.0sm 17.2°C / 62.6°F 8.3°C / 46.4°F 30.0
10/01 4:54 pm VFR 60° @ 8 kts OVC 3300 10.0sm 17.8°C / 62.6°F 7.8°C / 44.6°F 29.991142
10/01 3:54 pm VFR 50° @ 11 - 17 kts OVC 3100 10.0sm 17.8°C / 62.6°F 6.7°C / 42.8°F 30.0
10/01 2:54 pm VFR 50° @ 10 kts OVC 3400 10.0sm 18.3°C / 64.4°F 6.7°C / 42.8°F 30.0
10/01 1:54 pm VFR 50° @ 10 kts OVC 3900 10.0sm 17.8°C / 62.6°F 7.2°C / 44.6°F 30.008858
Show/Hide History...

KSYR METAR

Date/Time (Local) Flight Rules Wind Clouds Visibility Temperature Dewpoint Altimeter Remarks
10/01 8:54 pm SPECI VFR 340° @ 6 kts BKN 16000 OVC 25000 10.0sm 13.9°C / 55.4°F 7.2°C / 44.6°F 30.109253
10/01 7:54 pm VFR 360° @ 9 kts BKN 15000 BKN 24000 10.0sm 15.6°C / 59°F 7.2°C / 44.6°F 30.100393
10/01 6:54 pm VFR 330° @ 8 kts BKN 16000 BKN 23000 10.0sm 16.1°C / 60.8°F 7.8°C / 44.6°F 30.079725
10/01 5:54 pm VFR 310° @ 7 kts SCT 15000 BKN 22000 10.0sm 17.8°C / 62.6°F 8.9°C / 46.4°F 30.079725
10/01 4:54 pm VFR 330° @ 7 kts SCT 15000 BKN 22000 10.0sm 20.0°C / 68°F 8.9°C / 46.4°F 30.079725
10/01 3:54 pm VFR Calm FEW 14000 SCT 18000 BKN 23000 10.0sm 20.6°C / 68°F 6.1°C / 42.8°F 30.079725
10/01 2:54 pm VFR 50° @ 6 kts FEW 14000 SCT 18000 SCT 24000 10.0sm 20.0°C / 68°F 6.7°C / 42.8°F 30.088583
10/01 1:54 pm VFR Variable @ 4 kts FEW 14000 SCT 20000 BKN 24000 10.0sm 17.8°C / 62.6°F 6.7°C / 42.8°F 30.109253
Show/Hide History...